Grant, Montana
Current Conditions -  °F | °C
As of 8:53 AM on Thursday 27 Nov 2014 (Local Time) from KDLN Reporting Station
Scattered Clouds Scattered Clouds  
Wind Chill: 39°   Ceiling: Unl
Heat Index: 45°   Visibility: 10mi
Dew Point: 27°   Wind: 13mph
Humidity: 49%   Direction: 180°S
Pressure: 30.08"   Gusts: NA
Location:  45.1146°N, 112.879°W
Report Text: KDLN 271553Z AUTO 18011KT 10SM SCT080 07/M03 A3008 RMK AO2 SLP182 T00721028
Loading
Personal Weather Stations






























Interactive Weather Map New forecast layout! Learn more

10-Day Weather Forecast

Advertisements
Track Severe Weather on mobile